Time;durP1;ratioP1;P1;durP2;ratioP2;P2;SDS_P1;SDS_P2;PMS_P1;PMS_P2;Temp;Humidity;BMP_temperature;BMP_pressure;BME280_temperature;BME280_humidity;BME280_pressure;Samples;Min_cycle;Max_cycle;Signal;HPM_P1;HPM_P2
2022/09/04 00:00:00;;;;;;;7.23;6.47;;;18.30;1.00;;;;;;4989978;28;20500;-55
2022/09/04 00:02:56;;;;;;;8.03;7.23;;;18.30;1.00;;;;;;4989569;28;20565;-55
2022/09/04 00:05:27;;;;;;;7.77;7.10;;;18.30;1.00;;;;;;4989867;28;20511;-55
2022/09/04 00:08:01;;;;;;;7.33;6.63;;;18.20;1.00;;;;;;4991443;28;20857;-53
2022/09/04 00:10:33;;;;;;;7.57;6.97;;;18.20;1.00;;;;;;4991527;28;20441;-55
2022/09/04 00:13:07;;;;;;;7.87;7.03;;;18.30;1.00;;;;;;4991128;28;20441;-55
2022/09/04 00:15:39;;;;;;;7.63;6.93;;;18.30;1.00;;;;;;5002141;28;20489;-54
2022/09/04 00:18:14;;;;;;;7.40;6.70;;;18.40;1.00;;;;;;5010933;28;20415;-55
2022/09/04 00:20:46;;;;;;;7.60;6.87;;;18.40;1.00;;;;;;4990250;28;20452;-56
2022/09/04 00:23:26;;;;;;;7.07;6.40;;;18.30;1.00;;;;;;4990644;28;20495;-54
2022/09/04 00:26:00;;;;;;;8.53;7.17;;;18.30;1.00;;;;;;4990934;28;20423;-54
2022/09/04 00:28:39;;;;;;;9.23;7.57;;;18.30;1.00;;;;;;4990229;28;20537;-55
2022/09/04 00:31:24;;;;;;;7.27;6.27;;;18.30;1.00;;;;;;4991177;28;20448;-54
2022/09/04 00:34:08;;;;;;;8.00;7.30;;;18.30;1.00;;;;;;4988878;28;20456;-54
2022/09/04 00:36:37;;;;;;;7.40;6.70;;;18.20;1.00;;;;;;4989801;28;21031;-54
2022/09/04 00:39:18;;;;;;;8.37;7.20;;;18.30;1.00;;;;;;4990350;28;20945;-54
2022/09/04 00:41:58;;;;;;;7.07;6.37;;;18.30;1.00;;;;;;4990610;28;20884;-55
2022/09/04 00:44:37;;;;;;;8.13;6.80;;;18.40;1.00;;;;;;4988482;28;20950;-54
2022/09/04 00:47:17;;;;;;;7.03;6.43;;;18.40;1.00;;;;;;4989390;28;20487;-53
2022/09/04 00:49:59;;;;;;;7.47;6.77;;;18.40;1.00;;;;;;4988219;28;20441;-54
2022/09/04 00:52:53;;;;;;;7.47;6.77;;;18.30;1.00;;;;;;4990377;28;20528;-54
2022/09/04 00:55:53;;;;;;;9.23;6.87;;;18.30;1.00;;;;;;4990565;28;21011;-54
2022/09/04 00:58:47;;;;;;;7.20;6.23;;;18.20;1.00;;;;;;4986367;28;20442;-54
2022/09/04 01:05:27;;;;;;;8.80;5.83;;;18.30;1.00;;;;;;4929996;29;20898;-54
2022/09/04 01:08:31;;;;;;;7.10;6.40;;;18.20;1.00;;;;;;4928848;29;20440;-54
2022/09/04 01:14:32;;;;;;;6.63;6.10;;;18.30;1.00;;;;;;4989969;28;20411;-54
2022/09/04 01:17:26;;;;;;;7.53;6.70;;;18.30;1.00;;;;;;4990401;28;21259;-52
2022/09/04 01:20:08;;;;;;;6.53;5.93;;;18.40;1.00;;;;;;4990186;28;20404;-54
2022/09/04 01:22:45;;;;;;;10.97;6.50;;;18.40;1.00;;;;;;4992273;28;21015;-53
2022/09/04 01:25:22;;;;;;;6.97;6.27;;;18.40;1.00;;;;;;4989850;28;20499;-54
2022/09/04 01:28:13;;;;;;;6.10;5.50;;;18.30;1.00;;;;;;4988241;28;20419;-55
2022/09/04 01:34:34;;;;;;;6.23;5.63;;;18.30;1.00;;;;;;4890908;29;20442;-53
2022/09/04 01:37:18;;;;;;;5.80;5.30;;;18.30;1.00;;;;;;4891921;29;20464;-55
2022/09/04 01:39:50;;;;;;;8.80;6.37;;;18.40;1.00;;;;;;4984518;28;20875;-54
2022/09/04 01:42:44;;;;;;;8.07;5.60;;;18.30;1.00;;;;;;4989304;28;20531;-55
2022/09/04 01:45:10;;;;;;;6.60;6.00;;;18.30;1.00;;;;;;4990166;28;20420;-55
2022/09/04 01:47:50;;;;;;;7.80;6.70;;;18.40;1.00;;;;;;4989640;28;20453;-54
2022/09/04 01:50:22;;;;;;;6.43;5.87;;;18.30;1.00;;;;;;4989710;28;20433;-53
2022/09/04 01:52:52;;;;;;;6.63;6.03;;;18.30;1.00;;;;;;4997027;28;20456;-52
2022/09/04 01:55:23;;;;;;;7.07;6.30;;;18.30;1.00;;;;;;4990217;28;20461;-53
2022/09/04 01:58:15;;;;;;;6.57;6.03;;;18.30;1.00;;;;;;4992359;28;20449;-55
2022/09/04 02:01:10;;;;;;;6.87;6.20;;;18.40;1.00;;;;;;4992352;28;20438;-56
2022/09/04 02:03:55;;;;;;;10.57;6.67;;;18.30;1.00;;;;;;4991078;28;20449;-55
2022/09/04 02:06:32;;;;;;;7.60;6.70;;;18.30;1.00;;;;;;4991841;28;20449;-52
2022/09/04 02:09:21;;;;;;;12.73;6.50;;;18.30;1.00;;;;;;4990339;28;20476;-54
2022/09/04 02:12:18;;;;;;;8.87;6.47;;;18.30;1.00;;;;;;4993587;28;20450;-56
2022/09/04 02:15:03;;;;;;;7.33;6.60;;;18.30;1.00;;;;;;4993696;28;20449;-53
2022/09/04 02:17:44;;;;;;;7.60;6.90;;;18.30;1.00;;;;;;4991192;28;21016;-52
2022/09/04 02:20:28;;;;;;;8.27;7.47;;;18.30;1.00;;;;;;4992686;28;20460;-54
2022/09/04 02:23:06;;;;;;;8.17;6.80;;;18.30;1.00;;;;;;4990658;28;20524;-53
2022/09/04 02:25:44;;;;;;;6.80;6.10;;;18.30;1.00;;;;;;4995615;28;20427;-55
2022/09/04 02:28:12;;;;;;;7.27;6.57;;;18.30;1.00;;;;;;5004260;28;20540;-54
2022/09/04 02:34:11;;;;;;;9.33;7.07;;;18.30;1.00;;;;;;4991194;28;20452;-55
2022/09/04 02:36:48;;;;;;;7.67;6.53;;;18.30;1.00;;;;;;4990494;28;20507;-54
2022/09/04 02:39:44;;;;;;;6.87;6.27;;;18.30;1.00;;;;;;4991377;28;20842;-53
2022/09/04 02:42:32;;;;;;;7.37;6.73;;;18.40;1.00;;;;;;4992454;28;20483;-54
2022/09/04 02:45:14;;;;;;;7.67;6.90;;;18.40;1.00;;;;;;4989376;28;20882;-55
2022/09/04 02:48:15;;;;;;;7.43;6.60;;;18.40;1.00;;;;;;4992171;28;20420;-53
2022/09/04 02:54:31;;;;;;;7.47;6.70;;;18.40;1.00;;;;;;4992156;28;20470;-53
2022/09/04 02:57:06;;;;;;;8.03;7.30;;;18.40;1.00;;;;;;4989816;28;20966;-53
2022/09/04 02:59:57;;;;;;;7.60;6.90;;;18.30;1.00;;;;;;4990423;28;20599;-55
2022/09/04 03:02:30;;;;;;;9.33;6.67;;;18.30;1.00;;;;;;4991709;28;20771;-54
2022/09/04 03:05:20;;;;;;;6.60;6.00;;;18.20;1.00;;;;;;4992408;28;20411;-53
2022/09/04 03:08:18;;;;;;;7.63;6.87;;;18.20;1.00;;;;;;4991778;28;20464;-53
2022/09/04 03:10:47;;;;;;;8.90;6.17;;;18.10;1.00;;;;;;4987890;28;20984;-54
2022/09/04 03:13:25;;;;;;;7.17;6.40;;;17.90;1.00;;;;;;4988080;28;20454;-54
2022/09/04 03:16:08;;;;;;;9.10;6.53;;;17.90;1.00;;;;;;4991612;28;20445;-55
2022/09/04 03:18:53;;;;;;;7.03;6.33;;;18.00;1.00;;;;;;4991353;28;20453;-53
2022/09/04 03:25:18;;;;;;;6.27;5.70;;;17.90;1.00;;;;;;4948383;28;20950;-53
2022/09/04 03:28:07;;;;;;;6.10;5.50;;;17.80;1.00;;;;;;4991343;28;20506;-54
2022/09/04 03:30:36;;;;;;;5.80;5.20;;;17.80;1.00;;;;;;4991810;28;20449;-54
2022/09/04 03:33:16;;;;;;;6.00;5.43;;;17.80;1.00;;;;;;4992438;28;20893;-55
2022/09/04 03:36:06;;;;;;;5.87;5.33;;;17.80;1.00;;;;;;4991917;28;20521;-53
2022/09/04 03:39:09;;;;;;;6.20;5.60;;;17.80;1.00;;;;;;4990172;28;20429;-55
2022/09/04 03:41:57;;;;;;;5.20;4.70;;;17.80;1.00;;;;;;4991250;28;20467;-54
2022/09/04 03:44:45;;;;;;;6.50;5.40;;;17.90;1.00;;;;;;4990455;28;20452;-54
2022/09/04 03:51:07;;;;;;;6.20;5.60;;;17.80;1.00;;;;;;4966647;28;20924;-56
2022/09/04 03:53:52;;;;;;;5.27;4.80;;;17.70;1.00;;;;;;4989813;28;20467;-54
2022/09/04 04:00:00;;;;;;;5.83;5.30;;;17.80;1.00;;;;;;4896098;29;20459;-55
2022/09/04 04:06:22;;;;;;;6.30;5.80;;;17.70;1.00;;;;;;4879989;29;20826;-53
2022/09/04 04:09:22;;;;;;;6.50;5.90;;;17.70;1.00;;;;;;4930293;29;20989;-52
2022/09/04 04:15:42;;;;;;;5.93;5.30;;;17.70;1.00;;;;;;4856333;29;20437;-54
2022/09/04 04:18:31;;;;;;;7.90;5.87;;;17.70;1.00;;;;;;4929202;29;20468;-56
2022/09/04 04:21:18;;;;;;;6.30;5.70;;;17.60;1.00;;;;;;4917289;29;20990;-53
2022/09/04 04:24:27;;;;;;;6.40;5.60;;;17.50;1.00;;;;;;4929715;29;21049;-55
2022/09/04 04:30:53;;;;;;;6.37;5.63;;;17.50;1.00;;;;;;4854345;28;20476;-54
2022/09/04 04:36:14;;;;;;;5.60;5.20;;;17.50;1.00;;;;;;4979372;28;20455;-54
2022/09/04 04:39:08;;;;;;;7.83;6.53;;;17.50;1.00;;;;;;4975012;28;20450;-54
2022/09/04 04:46:03;;;;;;;6.67;6.00;;;17.30;1.00;;;;;;4835786;29;20630;-54
2022/09/04 04:48:58;;;;;;;8.10;6.27;;;17.30;1.00;;;;;;4881490;29;21100;-55
2022/09/04 04:58:45;;;;;;;8.67;6.10;;;17.30;1.00;;;;;;4774066;29;20833;-53
2022/09/04 05:01:23;;;;;;;11.40;7.60;;;17.20;1.00;;;;;;4871396;29;20810;-55
2022/09/04 05:03:59;;;;;;;6.10;5.60;;;17.20;1.00;;;;;;4873258;29;20513;-54
2022/09/04 05:06:39;;;;;;;7.27;6.57;;;17.20;1.00;;;;;;4871861;29;20460;-54
2022/09/04 05:09:35;;;;;;;7.50;6.80;;;17.20;1.00;;;;;;4872253;29;20433;-54
2022/09/04 05:12:27;;;;;;;9.50;6.97;;;17.20;1.00;;;;;;4870146;29;20974;-54
2022/09/04 05:15:19;;;;;;;7.67;6.50;;;17.20;1.00;;;;;;4869404;29;20458;-55
2022/09/04 05:18:00;;;;;;;7.90;7.03;;;17.30;1.00;;;;;;4872895;29;21063;-53
2022/09/04 05:20:40;;;;;;;6.70;6.00;;;17.30;1.00;;;;;;4872517;29;20460;-55
2022/09/04 05:23:14;;;;;;;7.13;6.43;;;17.40;1.00;;;;;;4931512;28;20815;-54
2022/09/04 05:26:16;;;;;;;6.67;6.07;;;17.40;1.00;;;;;;4971147;28;20488;-54
2022/09/04 05:29:05;;;;;;;7.80;7.10;;;17.50;1.00;;;;;;4988749;28;20453;-54
2022/09/04 05:31:43;;;;;;;7.27;6.00;;;17.60;1.00;;;;;;4980204;28;20499;-56
2022/09/04 05:34:32;;;;;;;6.80;6.20;;;17.60;1.00;;;;;;4991578;28;20423;-53
2022/09/04 05:37:12;;;;;;;7.60;6.90;;;17.70;1.00;;;;;;4991681;28;20932;-55
2022/09/04 05:40:19;;;;;;;7.70;7.00;;;17.70;1.00;;;;;;4991206;28;20421;-55
2022/09/04 05:43:07;;;;;;;6.73;6.13;;;17.90;1.00;;;;;;4947062;28;20505;-55
2022/09/04 05:45:46;;;;;;;6.70;6.03;;;18.00;1.00;;;;;;4992288;28;21073;-53
2022/09/04 05:48:40;;;;;;;7.93;7.03;;;18.00;1.00;;;;;;4988142;28;20438;-53
2022/09/04 05:51:17;;;;;;;6.33;5.30;;;18.00;1.00;;;;;;4990218;28;20961;-55
2022/09/04 05:54:03;;;;;;;7.10;6.50;;;18.00;1.00;;;;;;4990259;28;20988;-53
2022/09/04 05:56:56;;;;;;;8.33;6.30;;;18.00;1.00;;;;;;4989057;28;20478;-54
2022/09/04 05:59:52;;;;;;;7.03;6.33;;;18.00;1.00;;;;;;4992312;28;20470;-55
2022/09/04 06:02:32;;;;;;;6.83;6.23;;;18.10;1.00;;;;;;4995294;28;20560;-55
2022/09/04 06:05:27;;;;;;;6.80;6.10;;;18.20;1.00;;;;;;4993452;28;20824;-52
2022/09/04 06:07:59;;;;;;;8.07;6.57;;;18.30;1.00;;;;;;4989113;28;20419;-55
2022/09/04 06:10:53;;;;;;;7.30;6.60;;;18.30;1.00;;;;;;4992946;28;20424;-55
2022/09/04 06:13:25;;;;;;;7.07;6.47;;;18.40;1.00;;;;;;4987511;28;20484;-55
2022/09/04 06:15:56;;;;;;;7.33;6.73;;;18.40;1.00;;;;;;4988933;28;20560;-56
2022/09/04 06:18:37;;;;;;;7.30;6.57;;;18.50;1.00;;;;;;4987712;28;20439;-54
2022/09/04 06:21:15;;;;;;;9.63;6.27;;;18.60;1.00;;;;;;4989161;28;20863;-55
2022/09/04 06:23:44;;;;;;;7.83;6.53;;;18.60;1.00;;;;;;4990752;28;20424;-54
2022/09/04 06:26:51;;;;;;;6.60;6.00;;;18.70;1.00;;;;;;4990856;28;20536;-54
2022/09/04 06:29:50;;;;;;;8.20;6.33;;;18.70;1.00;;;;;;4986964;28;20447;-55
2022/09/04 06:32:21;;;;;;;6.93;6.23;;;18.80;1.00;;;;;;4990353;28;20803;-55
2022/09/04 06:35:13;;;;;;;8.07;6.90;;;18.90;1.00;;;;;;4990842;28;20424;-55
2022/09/04 06:38:09;;;;;;;6.63;6.03;;;19.00;1.00;;;;;;4988738;28;21031;-53
2022/09/04 06:41:29;;;;;;;8.37;5.87;;;19.10;1.00;;;;;;4992892;28;20501;-54
2022/09/04 06:44:14;;;;;;;6.83;6.17;;;19.20;1.00;;;;;;4910132;29;20472;-55
2022/09/04 06:46:54;;;;;;;6.17;5.67;;;19.50;1.00;;;;;;4987292;28;20478;-54
2022/09/04 06:49:34;;;;;;;7.00;6.40;;;19.70;1.00;;;;;;4990236;28;20452;-55
2022/09/04 06:52:09;;;;;;;6.70;6.10;;;19.70;1.00;;;;;;4988948;28;20504;-53
2022/09/04 06:54:59;;;;;;;7.13;6.43;;;19.80;1.00;;;;;;4991528;28;20459;-54
2022/09/04 06:57:51;;;;;;;9.27;6.30;;;19.90;1.00;;;;;;4988327;28;20475;-56
2022/09/04 07:00:18;;;;;;;6.43;5.93;;;19.90;1.00;;;;;;5000858;28;20457;-54
2022/09/04 07:02:53;;;;;;;7.80;7.03;;;19.90;1.00;;;;;;4991772;28;20486;-54
2022/09/04 07:05:36;;;;;;;6.60;6.00;;;20.00;1.00;;;;;;4985582;28;20426;-55
2022/09/04 07:08:12;;;;;;;6.63;6.03;;;20.10;1.00;;;;;;4989477;28;20416;-55
2022/09/04 07:11:15;;;;;;;6.67;6.07;;;20.20;1.00;;;;;;4989677;28;20582;-54
2022/09/04 07:14:15;;;;;;;7.20;6.10;;;20.50;1.00;;;;;;4956554;28;20461;-55
2022/09/04 07:16:44;;;;;;;6.60;6.00;;;20.60;1.00;;;;;;4987589;28;20450;-54
2022/09/04 07:19:34;;;;;;;9.23;5.97;;;20.80;1.00;;;;;;4992344;28;20442;-55
2022/09/04 07:22:30;;;;;;;6.63;6.13;;;21.00;1.00;;;;;;4990360;28;20478;-55
2022/09/04 07:25:03;;;;;;;6.87;6.27;;;21.00;1.00;;;;;;4970654;28;20428;-54
2022/09/04 07:27:54;;;;;;;5.87;5.37;;;21.10;1.00;;;;;;4987795;28;20442;-55
2022/09/04 07:30:24;;;;;;;6.87;6.27;;;21.10;1.00;;;;;;4989696;28;20504;-56
2022/09/04 07:32:57;;;;;;;6.57;6.07;;;21.20;1.00;;;;;;4985276;28;20541;-54
2022/09/04 07:35:34;;;;;;;5.77;5.27;;;21.50;1.00;;;;;;4988781;28;20487;-57
2022/09/04 07:38:36;;;;;;;6.77;6.23;;;21.80;1.00;;;;;;4988173;28;20574;-57
2022/09/04 07:41:18;;;;;;;5.77;5.27;;;22.10;1.00;;;;;;4993210;28;20480;-58
2022/09/04 07:43:53;;;;;;;5.57;5.07;;;22.00;1.00;;;;;;4988006;28;20432;-57
2022/09/04 07:46:29;;;;;;;6.20;5.70;;;22.10;1.00;;;;;;4989865;28;20460;-57
2022/09/04 07:48:57;;;;;;;5.97;5.47;;;22.20;1.00;;;;;;4987402;28;20533;-57
2022/09/04 07:51:32;;;;;;;6.30;5.70;;;22.20;1.00;;;;;;4988002;28;21050;-58
2022/09/04 07:54:14;;;;;;;6.30;5.70;;;22.20;1.00;;;;;;4991906;28;20458;-57
2022/09/04 07:57:10;;;;;;;5.90;5.40;;;22.20;1.00;;;;;;4985379;28;20446;-59
2022/09/04 08:00:09;;;;;;;5.30;4.90;;;22.20;1.00;;;;;;4989086;28;20449;-57
2022/09/04 08:03:15;;;;;;;6.60;5.73;;;22.40;1.00;;;;;;4985230;28;20447;-58
2022/09/04 08:05:44;;;;;;;6.77;5.50;;;22.70;1.00;;;;;;5003607;28;20511;-57
2022/09/04 08:08:28;;;;;;;8.07;5.63;;;22.90;1.00;;;;;;4992940;28;20436;-57
2022/09/04 08:11:18;;;;;;;6.60;5.60;;;22.90;1.00;;;;;;4982211;28;20412;-57
2022/09/04 08:14:09;;;;;;;6.53;5.17;;;23.10;1.00;;;;;;4995162;28;20446;-58
2022/09/04 08:16:58;;;;;;;6.50;5.80;;;23.30;1.00;;;;;;4988932;28;20441;-57
2022/09/04 08:19:41;;;;;;;6.23;5.63;;;23.60;1.00;;;;;;4993178;28;20450;-59
2022/09/04 08:22:15;;;;;;;5.87;5.37;;;23.90;1.00;;;;;;4988622;28;20480;-58
2022/09/04 08:24:52;;;;;;;5.80;5.30;;;24.20;1.00;;;;;;4989249;28;20517;-58
2022/09/04 08:27:59;;;;;;;6.20;5.60;;;24.50;1.00;;;;;;4986019;28;20450;-58
2022/09/04 08:30:34;;;;;;;5.93;5.43;;;24.90;1.00;;;;;;4986972;28;20413;-57
2022/09/04 08:33:37;;;;;;;6.20;5.70;;;24.90;1.00;;;;;;4979325;28;20938;-58
2022/09/04 08:36:09;;;;;;;6.93;5.17;;;25.10;1.00;;;;;;4987455;28;20490;-57
2022/09/04 08:38:58;;;;;;;6.90;5.17;;;24.70;1.00;;;;;;4981401;28;20766;-57
2022/09/04 08:41:55;;;;;;;5.60;5.20;;;24.50;1.00;;;;;;4980659;28;20452;-58
2022/09/04 08:44:46;;;;;;;5.43;4.93;;;24.50;1.00;;;;;;4988289;28;20530;-57
2022/09/04 08:47:40;;;;;;;6.23;5.63;;;24.50;1.00;;;;;;4990099;28;20556;-57
2022/09/04 08:50:22;;;;;;;5.70;5.20;;;24.50;1.00;;;;;;4984364;28;20422;-58
2022/09/04 08:53:09;;;;;;;7.63;5.40;;;24.70;1.00;;;;;;4995344;28;20477;-57
2022/09/04 08:55:56;;;;;;;5.90;5.40;;;24.60;1.00;;;;;;4986621;28;20436;-57
2022/09/04 08:58:40;;;;;;;5.83;5.33;;;24.70;1.00;;;;;;4994509;28;20941;-57
2022/09/04 09:01:08;;;;;;;5.37;4.97;;;24.70;1.00;;;;;;4992551;28;20423;-57
2022/09/04 09:03:40;;;;;;;5.50;4.70;;;24.60;1.00;;;;;;4990735;28;20417;-57
2022/09/04 09:06:50;;;;;;;6.97;5.33;;;24.50;1.00;;;;;;5001319;28;20421;-57
2022/09/04 09:09:27;;;;;;;5.33;4.83;;;24.60;1.00;;;;;;4987278;28;20831;-57
2022/09/04 09:12:20;;;;;;;5.43;4.93;;;25.00;1.00;;;;;;4996863;28;20419;-57
2022/09/04 09:15:05;;;;;;;6.20;5.30;;;25.20;1.00;;;;;;5000328;28;20425;-57
2022/09/04 09:17:39;;;;;;;6.07;5.27;;;25.20;1.00;;;;;;4980873;28;20422;-57
2022/09/04 09:20:26;;;;;;;6.97;5.00;;;25.50;1.00;;;;;;4984209;28;20452;-57
2022/09/04 09:23:19;;;;;;;5.70;5.10;;;25.30;1.00;;;;;;4984424;28;21096;-56
2022/09/04 09:25:54;;;;;;;5.67;5.10;;;25.20;1.00;;;;;;5007269;28;20441;-57
2022/09/04 09:28:50;;;;;;;5.43;5.03;;;25.40;1.00;;;;;;4981398;28;20545;-57
2022/09/04 09:31:37;;;;;;;5.67;5.17;;;25.50;1.00;;;;;;4987097;28;20481;-57
2022/09/04 09:34:24;;;;;;;6.80;5.50;;;25.60;1.00;;;;;;4984969;28;20448;-57
2022/09/04 09:36:49;;;;;;;7.13;5.10;;;25.90;1.00;;;;;;4991206;28;20461;-57
2022/09/04 09:39:35;;;;;;;5.80;5.30;;;26.10;1.00;;;;;;4994408;28;20437;-57
2022/09/04 09:42:26;;;;;;;7.13;5.77;;;26.30;1.00;;;;;;4989736;28;20220;-57
2022/09/04 09:45:02;;;;;;;4.73;4.33;;;26.30;1.00;;;;;;4989249;28;20474;-58
2022/09/04 09:47:43;;;;;;;5.50;4.80;;;26.00;1.00;;;;;;4988535;28;20525;-58
2022/09/04 09:50:14;;;;;;;18.47;5.70;;;25.80;1.00;;;;;;4988779;28;20535;-57
2022/09/04 09:52:58;;;;;;;5.03;4.63;;;25.70;1.00;;;;;;4998680;28;20438;-57
2022/09/04 09:55:57;;;;;;;5.47;4.90;;;25.80;1.00;;;;;;4983057;28;20429;-57
2022/09/04 09:58:43;;;;;;;5.73;4.87;;;26.20;1.00;;;;;;4981674;28;20847;-58
2022/09/04 10:01:18;;;;;;;5.43;4.93;;;26.50;1.00;;;;;;4987913;28;20447;-58
2022/09/04 10:04:10;;;;;;;6.17;4.60;;;26.50;1.00;;;;;;4987759;28;20420;-58
2022/09/04 10:07:09;;;;;;;4.50;4.10;;;26.70;1.00;;;;;;4989251;28;20516;-57
2022/09/04 10:10:06;;;;;;;5.07;4.57;;;26.80;1.00;;;;;;4985537;28;20454;-57
2022/09/04 10:13:19;;;;;;;4.47;4.13;;;26.90;1.00;;;;;;4988809;28;20931;-57
2022/09/04 10:16:21;;;;;;;4.40;4.10;;;26.90;1.00;;;;;;4974864;28;20466;-57
2022/09/04 10:18:50;;;;;;;5.00;4.60;;;27.10;1.00;;;;;;4996560;28;20512;-57
2022/09/04 10:21:49;;;;;;;4.90;4.50;;;27.00;1.00;;;;;;4999127;28;20854;-56
2022/09/04 10:25:06;;;;;;;4.27;3.87;;;27.30;1.00;;;;;;4997069;28;20522;-58
2022/09/04 10:28:19;;;;;;;6.37;4.27;;;27.10;1.00;;;;;;4949692;28;20536;-58
2022/09/04 10:30:54;;;;;;;4.27;3.87;;;26.60;1.00;;;;;;4924977;28;20638;-58
2022/09/04 10:33:43;;;;;;;4.80;4.40;;;26.60;1.00;;;;;;5001345;28;20457;-57
2022/09/04 10:36:48;;;;;;;4.57;4.17;;;27.00;1.00;;;;;;5005016;28;20446;-57
2022/09/04 10:42:51;;;;;;;4.23;3.83;;;27.40;1.00;;;;;;4999149;28;20474;-57
2022/09/04 10:45:29;;;;;;;4.40;4.00;;;27.50;1.00;;;;;;4992737;28;20513;-57
2022/09/04 10:48:23;;;;;;;4.67;4.27;;;27.70;1.00;;;;;;5007554;28;20436;-56
2022/09/04 10:51:14;;;;;;;4.77;4.33;;;27.80;1.00;;;;;;4955160;28;20532;-56
2022/09/04 10:53:56;;;;;;;4.67;4.00;;;27.70;1.00;;;;;;5000850;28;20819;-57
2022/09/04 10:56:36;;;;;;;3.87;3.57;;;27.70;1.00;;;;;;5000315;28;20441;-56
2022/09/04 10:59:14;;;;;;;4.10;3.80;;;27.50;1.00;;;;;;5004531;28;20453;-57
2022/09/04 11:01:43;;;;;;;4.17;3.77;;;27.10;1.00;;;;;;4997362;28;20455;-57
2022/09/04 11:04:46;;;;;;;4.43;3.93;;;27.30;1.00;;;;;;4995740;28;20786;-57
2022/09/04 11:07:36;;;;;;;4.37;3.77;;;27.70;1.00;;;;;;5001618;28;20814;-57
2022/09/04 11:10:03;;;;;;;4.00;3.70;;;28.10;1.00;;;;;;5000145;28;20444;-57
2022/09/04 11:13:11;;;;;;;4.30;4.00;;;28.30;1.00;;;;;;5011303;28;20445;-56
2022/09/04 11:15:51;;;;;;;4.43;4.07;;;28.30;1.00;;;;;;4939630;28;20497;-57
2022/09/04 11:18:50;;;;;;;4.70;4.07;;;27.90;1.00;;;;;;5000894;28;20428;-57
2022/09/04 11:21:43;;;;;;;4.63;4.30;;;27.80;1.00;;;;;;5003878;28;20569;-57
2022/09/04 11:24:32;;;;;;;4.30;3.87;;;27.00;1.00;;;;;;4994939;28;20449;-57
2022/09/04 11:27:11;;;;;;;4.47;4.07;;;26.90;1.00;;;;;;4996830;28;20814;-56
2022/09/04 11:30:05;;;;;;;4.20;3.90;;;26.70;1.00;;;;;;4978930;28;20437;-56
2022/09/04 11:33:08;;;;;;;3.97;3.67;;;26.90;1.00;;;;;;5002645;28;20833;-58
2022/09/04 11:35:48;;;;;;;5.87;5.33;;;27.40;1.00;;;;;;4992198;28;20421;-58
2022/09/04 11:38:42;;;;;;;4.47;4.00;;;27.70;1.00;;;;;;5006363;28;20929;-58
2022/09/04 11:41:10;;;;;;;6.93;6.27;;;28.00;1.00;;;;;;4997187;28;20457;-57
2022/09/04 11:43:53;;;;;;;7.40;6.80;;;28.20;1.00;;;;;;5005291;28;20466;-57
2022/09/04 11:46:42;;;;;;;6.00;5.40;;;28.40;1.00;;;;;;4996511;28;20451;-59
2022/09/04 11:49:20;;;;;;;5.47;4.03;;;29.00;1.00;;;;;;4960975;28;20417;-58
2022/09/04 11:52:06;;;;;;;6.30;4.33;;;29.60;1.00;;;;;;5001751;28;20417;-57
2022/09/04 11:54:44;;;;;;;4.70;4.30;;;29.70;1.00;;;;;;4996794;28;20824;-57
2022/09/04 11:57:44;;;;;;;4.17;3.60;;;29.70;1.00;;;;;;5002897;28;20432;-57
2022/09/04 12:00:15;;;;;;;4.03;3.70;;;30.10;1.00;;;;;;4999822;28;20757;-58
2022/09/04 12:02:49;;;;;;;5.30;4.83;;;30.00;1.00;;;;;;4997727;28;20477;-57
2022/09/04 12:05:49;;;;;;;5.07;4.50;;;29.60;1.00;;;;;;5005215;28;20928;-58
2022/09/04 12:08:51;;;;;;;4.83;4.53;;;28.80;1.00;;;;;;5002296;28;20446;-57
2022/09/04 12:11:38;;;;;;;4.77;4.30;;;28.20;1.00;;;;;;4995799;28;20441;-57
2022/09/04 12:14:37;;;;;;;4.70;4.30;;;27.90;1.00;;;;;;4993201;28;20456;-57
2022/09/04 12:17:36;;;;;;;5.10;4.43;;;28.60;1.00;;;;;;4997331;28;20424;-57
2022/09/04 12:20:24;;;;;;;5.23;4.83;;;28.70;1.00;;;;;;4995678;28;20446;-57
2022/09/04 12:23:08;;;;;;;5.40;5.00;;;28.80;1.00;;;;;;5002838;28;20490;-57
2022/09/04 12:25:56;;;;;;;5.30;4.90;;;28.90;1.00;;;;;;5002705;28;20453;-57
2022/09/04 12:28:43;;;;;;;4.60;4.27;;;29.10;1.00;;;;;;4996087;28;20516;-57
2022/09/04 12:31:28;;;;;;;4.90;4.53;;;29.30;1.00;;;;;;4998473;28;20497;-57
2022/09/04 12:34:13;;;;;;;5.60;5.10;;;29.20;1.00;;;;;;4984142;28;20815;-56
2022/09/04 12:37:04;;;;;;;5.87;5.30;;;29.40;1.00;;;;;;4995907;28;20442;-57
2022/09/04 12:39:36;;;;;;;4.33;4.03;;;29.50;1.00;;;;;;4996060;28;20987;-58
2022/09/04 12:42:27;;;;;;;4.77;4.13;;;29.50;1.00;;;;;;4995485;28;20501;-57
2022/09/04 12:45:28;;;;;;;4.83;4.40;;;29.60;1.00;;;;;;5001707;28;20413;-58
2022/09/04 12:48:09;;;;;;;4.77;4.27;;;29.30;1.00;;;;;;4994449;28;20441;-57
2022/09/04 12:50:44;;;;;;;5.10;4.70;;;28.60;1.00;;;;;;4980807;28;20458;-57
2022/09/04 12:53:31;;;;;;;5.13;4.73;;;28.60;1.00;;;;;;4997891;28;21028;-57
2022/09/04 12:55:57;;;;;;;4.90;4.50;;;28.60;1.00;;;;;;4997874;28;20417;-58
2022/09/04 12:58:43;;;;;;;4.87;4.47;;;28.60;1.00;;;;;;5002631;28;20434;-57
2022/09/04 13:01:30;;;;;;;4.70;4.30;;;28.50;1.00;;;;;;4993607;28;20453;-56
2022/09/04 13:04:25;;;;;;;5.53;5.07;;;28.60;1.00;;;;;;4999094;28;20556;-57
2022/09/04 13:07:10;;;;;;;5.10;4.70;;;28.50;1.00;;;;;;4995388;28;20425;-57
2022/09/04 13:09:47;;;;;;;4.80;4.30;;;28.10;1.00;;;;;;5003014;28;20428;-57
2022/09/04 13:12:21;;;;;;;4.47;4.07;;;27.80;1.00;;;;;;4998701;28;20442;-57
2022/09/04 13:15:18;;;;;;;4.60;4.20;;;27.50;1.00;;;;;;4997479;28;20412;-58
2022/09/04 13:18:11;;;;;;;5.17;4.33;;;27.30;1.00;;;;;;4993678;28;20439;-57
2022/09/04 13:20:51;;;;;;;4.93;4.30;;;27.30;1.00;;;;;;4998541;28;20418;-57
2022/09/04 13:23:25;;;;;;;4.50;4.17;;;27.50;1.00;;;;;;5002504;28;20444;-57
2022/09/04 13:26:04;;;;;;;4.80;4.40;;;27.40;1.00;;;;;;4999542;28;20449;-57
2022/09/04 13:29:07;;;;;;;4.47;4.07;;;27.30;1.00;;;;;;4998388;28;20442;-57
2022/09/04 13:32:00;;;;;;;4.50;4.10;;;27.10;1.00;;;;;;5005082;28;20516;-58
2022/09/04 13:34:35;;;;;;;4.47;4.07;;;27.00;1.00;;;;;;4994048;28;20535;-56
2022/09/04 13:37:09;;;;;;;6.43;4.37;;;26.80;1.00;;;;;;4998127;28;20955;-57
2022/09/04 13:39:43;;;;;;;4.43;4.13;;;26.90;1.00;;;;;;4993678;28;20458;-58
2022/09/04 13:42:12;;;;;;;4.40;4.10;;;27.00;1.00;;;;;;4993217;28;20449;-57
2022/09/04 13:45:04;;;;;;;4.10;3.67;;;27.10;1.00;;;;;;5003311;28;20494;-57
2022/09/04 13:47:53;;;;;;;4.77;4.37;;;27.30;1.00;;;;;;4992396;28;20929;-57
2022/09/04 13:50:28;;;;;;;10.50;4.40;;;27.30;1.00;;;;;;4997881;28;20445;-56
2022/09/04 13:53:01;;;;;;;4.60;4.20;;;27.30;1.00;;;;;;5002934;28;20441;-57
2022/09/04 13:55:44;;;;;;;5.63;4.00;;;27.40;1.00;;;;;;4995510;28;20785;-58
2022/09/04 13:58:18;;;;;;;4.93;4.10;;;27.50;1.00;;;;;;5006562;28;20803;-58
2022/09/04 14:00:50;;;;;;;4.73;4.33;;;27.50;1.00;;;;;;5000714;28;20458;-57
2022/09/04 14:03:47;;;;;;;4.43;4.03;;;27.60;1.00;;;;;;5005683;28;20530;-57
2022/09/04 14:06:16;;;;;;;4.50;4.20;;;27.50;1.00;;;;;;4999002;28;20438;-57
2022/09/04 14:08:44;;;;;;;5.60;4.30;;;27.20;1.00;;;;;;4994972;28;20508;-57
2022/09/04 14:11:14;;;;;;;4.37;4.00;;;27.10;1.00;;;;;;4993799;28;20445;-56
2022/09/04 14:14:19;;;;;;;4.60;4.03;;;27.10;1.00;;;;;;4998736;28;20440;-56
2022/09/04 14:16:48;;;;;;;3.90;3.60;;;27.00;1.00;;;;;;5000403;28;20444;-56
2022/09/04 14:19:16;;;;;;;4.30;3.80;;;27.10;1.00;;;;;;5000180;28;20413;-57
2022/09/04 14:22:10;;;;;;;4.33;3.90;;;27.10;1.00;;;;;;4997850;28;20567;-57
2022/09/04 14:24:40;;;;;;;4.97;4.50;;;27.10;1.00;;;;;;4960588;28;20464;-57
2022/09/04 14:27:35;;;;;;;4.67;4.00;;;27.10;1.00;;;;;;5006890;28;20532;-56
2022/09/04 14:30:09;;;;;;;4.83;4.43;;;27.10;1.00;;;;;;4995361;28;20454;-57
2022/09/04 14:32:48;;;;;;;4.50;4.20;;;27.00;1.00;;;;;;4995097;28;20450;-58
2022/09/04 14:35:13;;;;;;;4.33;4.00;;;26.90;1.00;;;;;;4998659;28;20451;-57
2022/09/04 14:38:06;;;;;;;4.63;4.20;;;26.90;1.00;;;;;;5002389;28;20825;-57
2022/09/04 14:40:37;;;;;;;7.07;4.00;;;26.90;1.00;;;;;;4993385;28;20232;-57
2022/09/04 14:43:05;;;;;;;4.30;4.00;;;28.70;1.00;;;;;;4985623;28;20445;-57
2022/09/04 14:46:05;;;;;;;3.97;3.73;;;28.60;1.00;;;;;;5001638;28;20443;-58
2022/09/04 14:48:39;;;;;;;3.97;3.73;;;31.40;1.00;;;;;;5000085;28;20438;-57
2022/09/04 14:51:34;;;;;;;5.00;4.30;;;31.50;1.00;;;;;;5003548;28;20458;-56
2022/09/04 14:54:01;;;;;;;4.40;4.00;;;32.90;1.00;;;;;;5003180;28;20569;-57
2022/09/04 14:56:44;;;;;;;4.00;3.70;;;33.60;1.00;;;;;;4992843;28;20471;-56
2022/09/04 14:59:29;;;;;;;7.23;4.00;;;33.60;1.00;;;;;;4998037;28;20798;-58
2022/09/04 15:02:10;;;;;;;3.60;3.30;;;33.60;1.00;;;;;;4993424;28;20452;-58
2022/09/04 15:04:46;;;;;;;4.33;4.03;;;33.80;1.00;;;;;;5006797;28;20416;-57
2022/09/04 15:07:29;;;;;;;4.40;4.00;;;34.60;1.00;;;;;;5003309;28;20417;-57
2022/09/04 15:10:10;;;;;;;4.27;3.97;;;35.20;1.00;;;;;;5000521;28;20435;-58
2022/09/04 15:12:42;;;;;;;3.97;3.67;;;34.90;1.00;;;;;;5004829;28;20525;-57
2022/09/04 15:15:13;;;;;;;4.03;3.73;;;34.10;1.00;;;;;;4998132;28;20515;-57
2022/09/04 15:17:50;;;;;;;4.40;4.10;;;33.70;1.00;;;;;;4998147;28;20417;-57
2022/09/04 15:20:27;;;;;;;4.00;3.60;;;33.10;1.00;;;;;;4996999;28;20936;-56
2022/09/04 15:22:56;;;;;;;4.17;3.77;;;33.30;1.00;;;;;;5001349;28;20467;-58